createdAt,value
2019-02-18T00:00:16.002Z,-0.43
2019-02-18T00:01:15.921Z,-0.58
2019-02-18T00:02:15.822Z,-0.61
2019-02-18T00:03:15.743Z,-0.59
2019-02-18T00:04:15.659Z,-0.58
2019-02-18T00:05:15.580Z,-0.61
2019-02-18T00:06:15.495Z,-0.59
2019-02-18T00:07:15.401Z,-0.65
2019-02-18T00:08:15.326Z,-0.62
2019-02-18T00:09:15.232Z,-0.58
2019-02-18T00:10:15.149Z,-0.53
2019-02-18T00:11:15.062Z,-0.61
2019-02-18T00:12:14.978Z,-0.56
2019-02-18T00:13:14.899Z,-0.58
2019-02-18T00:14:14.817Z,-0.64
2019-02-18T00:15:14.726Z,-0.54
2019-02-18T00:16:14.642Z,-0.64
2019-02-18T00:17:14.581Z,-0.68
2019-02-18T00:18:14.474Z,-0.69
2019-02-18T00:19:14.390Z,-0.74
2019-02-18T00:20:14.303Z,-0.71
2019-02-18T00:21:14.219Z,-0.58
2019-02-18T00:22:14.137Z,-0.56
2019-02-18T00:23:14.067Z,-0.58
2019-02-18T00:24:13.965Z,-0.54
2019-02-18T00:25:13.900Z,-0.56
2019-02-18T00:26:13.799Z,-0.50
2019-02-18T00:27:13.716Z,-0.58
2019-02-18T00:28:13.627Z,-0.47
2019-02-18T00:29:13.536Z,-0.43
2019-02-18T00:30:13.463Z,-0.38
2019-02-18T00:31:13.374Z,-0.41
2019-02-18T00:32:13.304Z,-0.37
2019-02-18T00:33:13.207Z,-0.29
2019-02-18T00:34:13.120Z,-0.40
2019-02-18T00:35:13.065Z,-0.40
2019-02-18T00:36:12.952Z,-0.41
2019-02-18T00:37:12.882Z,-0.44
2019-02-18T00:38:12.792Z,-0.50
2019-02-18T00:39:12.693Z,-0.46
2019-02-18T00:40:12.615Z,-0.43
2019-02-18T00:41:12.538Z,-0.40
2019-02-18T00:42:12.444Z,-0.44
2019-02-18T00:43:12.358Z,-0.44
2019-02-18T00:44:12.275Z,-0.58
2019-02-18T00:45:12.190Z,-0.59
2019-02-18T00:46:12.124Z,-0.58
2019-02-18T00:47:12.045Z,-0.61
2019-02-18T00:48:11.951Z,-0.62
2019-02-18T00:49:11.873Z,-0.53
2019-02-18T00:50:11.790Z,-0.58
2019-02-18T00:51:11.682Z,-0.53
2019-02-18T00:52:11.595Z,-0.59
2019-02-18T00:53:11.514Z,-0.59
2019-02-18T00:54:11.429Z,-0.61
2019-02-18T00:55:11.364Z,-0.71
2019-02-18T00:56:11.269Z,-0.72
2019-02-18T00:57:11.176Z,-0.72
2019-02-18T00:58:11.094Z,-0.69
2019-02-18T00:59:11.009Z,-0.59
2019-02-18T01:00:10.930Z,-0.69
2019-02-18T01:01:10.844Z,-0.71
2019-02-18T01:02:10.752Z,-0.68
2019-02-18T01:03:10.674Z,-0.64
2019-02-18T01:04:10.599Z,-0.61
2019-02-18T01:05:10.509Z,-0.64
2019-02-18T01:06:10.408Z,-0.68
2019-02-18T01:07:10.327Z,-0.69
2019-02-18T01:08:10.247Z,-0.77
2019-02-18T01:09:10.160Z,-0.71
2019-02-18T01:10:10.078Z,-0.77
2019-02-18T01:11:09.989Z,-0.79
2019-02-18T01:12:09.907Z,-0.90
2019-02-18T01:13:09.823Z,-0.95
2019-02-18T01:14:09.733Z,-0.83
2019-02-18T01:15:09.654Z,-0.87
2019-02-18T01:16:09.620Z,-0.83
2019-02-18T01:17:09.486Z,-0.95
2019-02-18T01:18:09.392Z,-0.76
2019-02-18T01:19:09.304Z,-0.79
2019-02-18T01:20:09.241Z,-0.84
2019-02-18T01:21:09.141Z,-0.90
2019-02-18T01:22:09.069Z,-0.83
2019-02-18T01:23:08.982Z,-0.84
2019-02-18T01:24:08.887Z,-0.83
2019-02-18T01:25:08.803Z,-0.82
2019-02-18T01:26:08.718Z,-0.80
2019-02-18T01:27:08.636Z,-0.98
2019-02-18T01:28:08.545Z,-0.98
2019-02-18T01:29:08.467Z,-0.90
2019-02-18T01:30:08.380Z,-0.90
2019-02-18T01:31:08.297Z,-0.87
2019-02-18T01:32:08.204Z,-0.93
2019-02-18T01:33:08.136Z,-1.01
2019-02-18T01:34:08.042Z,-0.93
2019-02-18T01:35:07.962Z,-1.05
2019-02-18T01:36:07.871Z,-1.05
2019-02-18T01:37:07.787Z,-1.14
2019-02-18T01:38:07.703Z,-1.13
2019-02-18T01:39:07.611Z,-1.14
2019-02-18T01:40:07.530Z,-1.16
2019-02-18T01:41:07.446Z,-1.09
2019-02-18T01:42:07.362Z,-1.16
2019-02-18T01:43:07.286Z,-1.13
2019-02-18T01:44:07.191Z,-1.19
2019-02-18T01:45:07.106Z,-1.13
2019-02-18T01:46:07.022Z,-1.09
2019-02-18T01:47:06.937Z,-1.14
2019-02-18T01:48:06.852Z,-1.11
2019-02-18T01:49:06.769Z,-1.14
2019-02-18T01:50:06.686Z,-1.17
2019-02-18T01:51:06.610Z,-1.16
2019-02-18T01:52:06.514Z,-1.22
2019-02-18T01:53:06.428Z,-1.16
2019-02-18T01:54:06.351Z,-1.23
2019-02-18T01:55:06.251Z,-1.23
2019-02-18T01:56:06.221Z,-1.20
2019-02-18T01:57:06.089Z,-1.19
2019-02-18T01:58:06.006Z,-1.14
2019-02-18T01:59:05.916Z,-1.16
2019-02-18T02:00:05.842Z,-1.09
2019-02-18T02:01:05.751Z,-1.16
2019-02-18T02:02:05.667Z,-1.08
2019-02-18T02:03:05.578Z,-1.06
2019-02-18T02:04:05.493Z,-1.13
2019-02-18T02:05:05.416Z,-1.13
2019-02-18T02:06:05.338Z,-1.16
2019-02-18T02:07:05.339Z,-1.16
2019-02-18T02:08:05.174Z,-1.17
2019-02-18T02:09:05.063Z,-1.14
2019-02-18T02:10:04.987Z,-1.01
2019-02-18T02:11:04.905Z,-1.05
2019-02-18T02:12:04.815Z,-1.05
2019-02-18T02:13:04.726Z,-1.02
2019-02-18T02:14:04.644Z,-0.96
2019-02-18T02:15:04.558Z,-1.01
2019-02-18T02:16:04.477Z,-0.93
2019-02-18T02:17:04.385Z,-1.03
2019-02-18T02:18:04.305Z,-0.99
2019-02-18T02:19:04.220Z,-0.96
2019-02-18T02:20:04.132Z,-0.96
2019-02-18T02:21:04.050Z,-1.05
2019-02-18T02:22:03.960Z,-1.05
2019-02-18T02:23:03.884Z,-1.06
2019-02-18T02:24:03.791Z,-1.03
2019-02-18T02:25:03.711Z,-1.03
2019-02-18T02:26:03.624Z,-0.98
2019-02-18T02:27:03.541Z,-1.01
2019-02-18T02:28:03.454Z,-0.99
2019-02-18T02:29:03.368Z,-1.02
2019-02-18T02:30:03.286Z,-0.90
2019-02-18T02:31:03.211Z,-1.01
2019-02-18T02:32:03.121Z,-0.98
2019-02-18T02:33:03.034Z,-1.02
2019-02-18T02:34:02.946Z,-1.01
2019-02-18T02:35:02.859Z,-0.99
2019-02-18T02:36:02.778Z,-1.05
2019-02-18T02:37:02.700Z,-1.13
2019-02-18T02:38:07.633Z,-1.14
2019-02-18T02:39:02.529Z,-1.11
2019-02-18T02:40:02.435Z,-1.14
2019-02-18T02:41:02.343Z,-1.14
2019-02-18T02:42:02.288Z,-1.17
2019-02-18T02:43:02.179Z,-1.11
2019-02-18T02:44:02.095Z,-1.17
2019-02-18T02:45:02.011Z,-1.16
2019-02-18T02:46:01.926Z,-1.14
2019-02-18T02:47:01.841Z,-1.17
2019-02-18T02:48:01.753Z,-1.16
2019-02-18T02:49:01.689Z,-1.14
2019-02-18T02:50:01.584Z,-1.19
2019-02-18T02:51:01.500Z,-1.09
2019-02-18T02:52:01.414Z,-1.14
2019-02-18T02:53:01.335Z,-1.14
2019-02-18T02:54:01.243Z,-1.11
2019-02-18T02:55:01.159Z,-1.17
2019-02-18T02:56:01.071Z,-1.13
2019-02-18T02:57:00.981Z,-1.11
2019-02-18T02:58:00.901Z,-1.20
2019-02-18T02:59:00.818Z,-1.22
2019-02-18T03:00:00.727Z,-1.37
2019-02-18T03:01:00.659Z,-1.22
2019-02-18T03:02:00.572Z,-1.20
2019-02-18T03:03:00.478Z,-1.34
2019-02-18T03:04:00.394Z,-1.29
2019-02-18T03:05:00.502Z,-1.29
2019-02-18T03:06:00.224Z,-1.30
2019-02-18T03:07:00.149Z,-1.26
2019-02-18T03:08:00.054Z,-1.34
2019-02-18T03:08:59.968Z,-1.34
2019-02-18T03:09:59.885Z,-1.40
2019-02-18T03:10:59.811Z,-1.40
2019-02-18T03:11:59.713Z,-1.42
2019-02-18T03:12:59.644Z,-1.44
2019-02-18T03:13:59.541Z,-1.56
2019-02-18T03:14:59.455Z,-1.55
2019-02-18T03:15:59.371Z,-1.55
2019-02-18T03:16:59.288Z,-1.52
2019-02-18T03:17:59.221Z,-1.66
2019-02-18T03:18:59.115Z,-1.62
2019-02-18T03:19:59.030Z,-1.59
2019-02-18T03:20:58.944Z,-1.60
2019-02-18T03:21:58.862Z,-1.70
2019-02-18T03:22:58.774Z,-1.70
2019-02-18T03:23:58.702Z,-1.68
2019-02-18T03:24:58.604Z,-1.73
2019-02-18T03:25:58.518Z,-1.71
2019-02-18T03:26:58.434Z,-1.73
2019-02-18T03:27:58.354Z,-1.71
2019-02-18T03:28:58.257Z,-1.73
2019-02-18T03:29:58.177Z,-1.77
2019-02-18T03:30:58.091Z,-1.77
2019-02-18T03:31:58.010Z,-1.74
2019-02-18T03:32:57.939Z,-1.78
2019-02-18T03:33:57.839Z,-1.70
2019-02-18T03:34:57.755Z,-1.66
2019-02-18T03:35:57.663Z,-1.59
2019-02-18T03:36:57.582Z,-1.53
2019-02-18T03:37:57.491Z,-1.59
2019-02-18T03:38:57.407Z,-1.58
2019-02-18T03:39:57.327Z,-1.58
2019-02-18T03:41:03.138Z,-1.53
2019-02-18T03:41:57.150Z,-1.55
2019-02-18T03:42:57.069Z,-1.42
2019-02-18T03:43:56.983Z,-1.38
2019-02-18T03:44:56.898Z,-1.41
2019-02-18T03:45:56.812Z,-1.40
2019-02-18T03:46:56.735Z,-1.40
2019-02-18T03:47:56.645Z,-1.23
2019-02-18T03:48:56.556Z,-1.27
2019-02-18T03:49:56.474Z,-1.23
2019-02-18T03:50:56.392Z,-1.29
2019-02-18T03:51:56.302Z,-1.32
2019-02-18T03:52:56.215Z,-1.20
2019-02-18T03:53:56.137Z,-1.26
2019-02-18T03:54:56.040Z,-1.19
2019-02-18T03:55:55.959Z,-1.37
2019-02-18T03:56:55.883Z,-1.19
2019-02-18T03:57:55.784Z,-1.22
2019-02-18T03:58:55.716Z,-1.27
2019-02-18T03:59:55.616Z,-1.23
2019-02-18T04:00:55.548Z,-1.22
2019-02-18T04:01:55.452Z,-1.20
2019-02-18T04:02:55.371Z,-1.29
2019-02-18T04:03:55.277Z,-1.14
2019-02-18T04:04:55.224Z,-1.26
2019-02-18T04:05:55.116Z,-1.29
2019-02-18T04:06:55.024Z,-1.41
2019-02-18T04:07:54.938Z,-1.38
2019-02-18T04:08:54.851Z,-1.44
2019-02-18T04:09:54.766Z,-1.53
2019-02-18T04:10:54.681Z,-1.52
2019-02-18T04:11:54.601Z,-1.58
2019-02-18T04:12:54.520Z,-1.60
2019-02-18T04:13:54.421Z,-1.56
2019-02-18T04:14:54.338Z,-1.56
2019-02-18T04:15:54.257Z,-1.62
2019-02-18T04:16:54.166Z,-1.53
2019-02-18T04:17:54.088Z,-1.59
2019-02-18T04:18:54.001Z,-1.53
2019-02-18T04:19:53.913Z,-1.45
2019-02-18T04:20:53.833Z,-1.45
2019-02-18T04:21:53.744Z,-1.47
2019-02-18T04:22:53.658Z,-1.42
2019-02-18T04:23:53.572Z,-1.44
2019-02-18T04:24:53.482Z,-1.38
2019-02-18T04:25:53.403Z,-1.41
2019-02-18T04:26:53.322Z,-1.60
2019-02-18T04:27:53.231Z,-1.56
2019-02-18T04:28:53.145Z,-1.58
2019-02-18T04:29:53.062Z,-1.60
2019-02-18T04:30:52.979Z,-1.63
2019-02-18T04:31:52.895Z,-1.68
2019-02-18T04:32:52.799Z,-1.73
2019-02-18T04:33:52.717Z,-1.62
2019-02-18T04:34:52.634Z,-1.66
2019-02-18T04:35:52.551Z,-1.59
2019-02-18T04:36:52.472Z,-1.60
2019-02-18T04:37:52.378Z,-1.60
2019-02-18T04:38:54.380Z,-1.56
2019-02-18T04:39:52.207Z,-1.56
2019-02-18T04:40:52.125Z,-1.52
2019-02-18T04:41:52.038Z,-1.56
2019-02-18T04:42:51.951Z,-1.50
2019-02-18T04:43:51.861Z,-1.55
2019-02-18T04:44:51.786Z,-1.55
2019-02-18T04:45:51.694Z,-1.56
2019-02-18T04:46:51.609Z,-1.58
2019-02-18T04:47:51.523Z,-1.53
2019-02-18T04:48:51.449Z,-1.55
2019-02-18T04:49:51.347Z,-1.56
2019-02-18T04:50:51.267Z,-1.60
2019-02-18T04:51:51.182Z,-1.53
2019-02-18T04:52:51.096Z,-1.58
2019-02-18T04:53:51.008Z,-1.59
2019-02-18T04:54:50.925Z,-1.62
2019-02-18T04:55:50.855Z,-1.65
2019-02-18T04:56:50.760Z,-1.65
2019-02-18T04:57:50.677Z,-1.53
2019-02-18T04:58:50.586Z,-1.50
2019-02-18T04:59:50.508Z,-1.55
2019-02-18T05:00:50.409Z,-1.55
2019-02-18T05:01:50.331Z,-1.55
2019-02-18T05:02:50.259Z,-1.52
2019-02-18T05:03:50.158Z,-1.58
2019-02-18T05:04:50.075Z,-1.60
2019-02-18T05:05:49.990Z,-1.71
2019-02-18T05:06:49.906Z,-1.68
2019-02-18T05:07:49.819Z,-1.84
2019-02-18T05:08:49.732Z,-1.73
2019-02-18T05:09:49.645Z,-1.76
2019-02-18T05:10:49.561Z,-1.74
2019-02-18T05:11:49.481Z,-1.73
2019-02-18T05:12:49.388Z,-1.76
2019-02-18T05:13:49.304Z,-1.70
2019-02-18T05:14:49.217Z,-1.70
2019-02-18T05:15:49.144Z,-1.73
2019-02-18T05:16:49.041Z,-1.70
2019-02-18T05:17:48.962Z,-1.70
2019-02-18T05:18:48.886Z,-1.71
2019-02-18T05:19:48.794Z,-1.73
2019-02-18T05:20:48.703Z,-1.73
2019-02-18T05:21:48.620Z,-1.86
2019-02-18T05:22:48.551Z,-1.89
2019-02-18T05:23:48.442Z,-1.84
2019-02-18T05:24:48.363Z,-1.84
2019-02-18T05:25:48.277Z,-1.91
2019-02-18T05:26:48.199Z,-1.97
2019-02-18T05:27:48.107Z,-1.88
2019-02-18T05:28:49.754Z,-1.86
2019-02-18T05:29:47.944Z,-1.97
2019-02-18T05:30:47.884Z,-2.04
2019-02-18T05:31:47.764Z,-1.99
2019-02-18T05:32:47.677Z,-2.09
2019-02-18T05:33:47.604Z,-2.07
2019-02-18T05:34:47.508Z,-2.06
2019-02-18T05:35:47.425Z,-2.06
2019-02-18T05:36:47.332Z,-2.07
2019-02-18T05:37:47.254Z,-2.10
2019-02-18T05:38:47.166Z,-2.06
2019-02-18T05:39:47.078Z,-2.06
2019-02-18T05:40:46.995Z,-2.15
2019-02-18T05:41:46.917Z,-2.09
2019-02-18T05:42:46.823Z,-1.99
2019-02-18T05:43:46.738Z,-2.10
2019-02-18T05:44:46.664Z,-2.12
2019-02-18T05:45:46.578Z,-2.12
2019-02-18T05:46:46.475Z,-2.09
2019-02-18T05:47:46.396Z,-2.16
2019-02-18T05:48:46.311Z,-2.01
2019-02-18T05:49:46.230Z,-2.12
2019-02-18T05:50:46.137Z,-2.16
2019-02-18T05:51:46.055Z,-1.99
2019-02-18T05:52:45.980Z,-2.07
2019-02-18T05:53:45.880Z,-1.92
2019-02-18T05:54:45.804Z,-1.89
2019-02-18T05:55:45.714Z,-1.95
2019-02-18T05:56:45.630Z,-1.91
2019-02-18T05:57:45.543Z,-1.95
2019-02-18T05:58:45.451Z,-2.01
2019-02-18T05:59:45.374Z,-1.99
2019-02-18T06:00:45.289Z,-1.99
2019-02-18T06:01:45.193Z,-1.98
2019-02-18T06:02:45.115Z,-1.94
2019-02-18T06:03:45.038Z,-1.89
2019-02-18T06:04:44.941Z,-1.86
2019-02-18T06:05:44.861Z,-1.91
2019-02-18T06:06:44.765Z,-1.88
2019-02-18T06:07:44.686Z,-1.88
2019-02-18T06:08:44.601Z,-1.89
2019-02-18T06:09:44.552Z,-1.86
2019-02-18T06:10:44.440Z,-1.95
2019-02-18T06:11:44.340Z,-1.92
2019-02-18T06:12:44.255Z,-1.92
2019-02-18T06:13:44.171Z,-1.97
2019-02-18T06:14:44.085Z,-1.99
2019-02-18T06:15:43.993Z,-1.98
2019-02-18T06:16:43.918Z,-2.07
2019-02-18T06:17:43.826Z,-2.09
2019-02-18T06:18:43.743Z,-2.07
2019-02-18T06:19:43.656Z,-2.02
2019-02-18T06:20:43.570Z,-2.02
2019-02-18T06:21:43.481Z,-2.01
2019-02-18T06:22:43.399Z,-2.10
2019-02-18T06:23:43.313Z,-1.98
2019-02-18T06:24:43.229Z,-2.06
2019-02-18T06:25:43.141Z,-2.15
2019-02-18T06:26:43.057Z,-2.13
2019-02-18T06:27:42.967Z,-2.12
2019-02-18T06:28:42.885Z,-2.13
2019-02-18T06:29:42.797Z,-2.12
2019-02-18T06:30:42.713Z,-2.10
2019-02-18T06:31:42.626Z,-2.07
2019-02-18T06:32:42.551Z,-2.17
2019-02-18T06:33:42.461Z,-2.12
2019-02-18T06:34:42.373Z,-2.10
2019-02-18T06:35:42.286Z,-2.06
2019-02-18T06:36:42.202Z,-2.07
2019-02-18T06:37:42.116Z,-2.07
2019-02-18T06:38:42.030Z,-2.04
2019-02-18T06:39:42.198Z,-2.06
2019-02-18T06:40:41.859Z,-1.99
2019-02-18T06:41:41.770Z,-1.99
2019-02-18T06:42:41.703Z,-2.06
2019-02-18T06:43:41.602Z,-2.01
2019-02-18T06:44:41.521Z,-2.06
2019-02-18T06:45:41.429Z,-2.12
2019-02-18T06:46:41.344Z,-2.04
2019-02-18T06:47:41.258Z,-2.06
2019-02-18T06:48:41.170Z,-1.98
2019-02-18T06:49:41.097Z,-1.98
2019-02-18T06:50:41.001Z,-2.01
2019-02-18T06:51:40.915Z,-1.95
2019-02-18T06:52:40.828Z,-1.94
2019-02-18T06:53:40.753Z,-1.94
2019-02-18T06:54:40.658Z,-2.01
2019-02-18T06:55:40.600Z,-2.06
2019-02-18T06:56:40.481Z,-1.98
2019-02-18T06:57:40.408Z,-2.12
2019-02-18T06:58:40.315Z,-1.97
2019-02-18T06:59:40.230Z,-2.13
2019-02-18T07:00:40.144Z,-2.01
2019-02-18T07:01:40.063Z,-2.02
2019-02-18T07:02:39.970Z,-1.94
2019-02-18T07:03:39.886Z,-1.99
2019-02-18T07:04:39.806Z,-1.94
2019-02-18T07:05:39.715Z,-1.94
2019-02-18T07:06:39.631Z,-1.88
2019-02-18T07:07:39.541Z,-1.92
2019-02-18T07:08:39.460Z,-1.84
2019-02-18T07:09:39.375Z,-1.86
2019-02-18T07:10:39.285Z,-1.84
2019-02-18T07:11:39.201Z,-1.84
2019-02-18T07:12:39.118Z,-1.65
2019-02-18T07:13:39.042Z,-1.62
2019-02-18T07:14:38.943Z,-1.58
2019-02-18T07:15:38.858Z,-1.48
2019-02-18T07:16:38.788Z,-1.52
2019-02-18T07:17:38.690Z,-1.38
2019-02-18T07:18:38.603Z,-1.40
2019-02-18T07:19:38.520Z,-1.38
2019-02-18T07:20:38.427Z,-1.34
2019-02-18T07:21:38.355Z,-1.40
2019-02-18T07:22:38.258Z,-1.29
2019-02-18T07:23:38.174Z,-1.22
2019-02-18T07:24:38.085Z,-1.20
2019-02-18T07:25:38.004Z,-1.17
2019-02-18T07:26:37.919Z,-1.20
2019-02-18T07:27:37.839Z,-1.16
2019-02-18T07:28:37.750Z,-1.03
2019-02-18T07:29:37.665Z,-0.98
2019-02-18T07:30:37.577Z,-0.72
2019-02-18T07:31:37.489Z,-0.69
2019-02-18T07:32:37.406Z,-0.56
2019-02-18T07:33:37.324Z,-0.44
2019-02-18T07:34:37.235Z,-0.37
2019-02-18T07:35:37.152Z,-0.20
2019-02-18T07:36:37.068Z,0.11
2019-02-18T07:37:36.981Z,0.28
2019-02-18T07:38:36.897Z,0.39
2019-02-18T07:39:36.805Z,0.59
2019-02-18T07:40:36.725Z,0.79
2019-02-18T07:41:36.643Z,1.12
2019-02-18T07:42:36.551Z,1.25
2019-02-18T07:43:36.471Z,1.32
2019-02-18T07:44:36.387Z,1.55
2019-02-18T07:45:36.304Z,1.68
2019-02-18T07:46:36.215Z,1.82
2019-02-18T07:47:36.132Z,1.99
2019-02-18T07:48:36.793Z,2.01
2019-02-18T07:49:35.964Z,2.13
2019-02-18T07:50:35.880Z,2.32
2019-02-18T07:51:35.793Z,2.56
2019-02-18T07:52:35.711Z,2.75
2019-02-18T07:53:35.624Z,2.89
2019-02-18T07:54:35.542Z,2.98
2019-02-18T07:55:35.464Z,3.01
2019-02-18T07:56:35.378Z,3.16
2019-02-18T07:57:35.287Z,3.21
2019-02-18T07:58:35.205Z,3.34
2019-02-18T07:59:35.114Z,3.31
2019-02-18T08:00:35.035Z,3.53
2019-02-18T08:01:34.949Z,3.53
2019-02-18T08:02:34.870Z,3.64
2019-02-18T08:03:34.817Z,3.77
2019-02-18T08:04:34.693Z,3.84
2019-02-18T08:05:34.619Z,3.97
2019-02-18T08:06:34.531Z,4.01
2019-02-18T08:07:34.446Z,4.16
2019-02-18T08:08:34.361Z,4.20
2019-02-18T08:09:34.274Z,4.40
2019-02-18T08:10:34.196Z,4.44
2019-02-18T08:11:34.113Z,4.55
2019-02-18T08:12:34.024Z,4.58
2019-02-18T08:13:33.947Z,4.69
2019-02-18T08:14:33.872Z,4.83
2019-02-18T08:15:33.780Z,5.06
2019-02-18T08:16:33.694Z,5.28
2019-02-18T08:17:33.616Z,5.38
2019-02-18T08:18:33.532Z,5.53
2019-02-18T08:19:33.461Z,5.65
2019-02-18T08:20:33.366Z,5.63
2019-02-18T08:21:33.282Z,5.81
2019-02-18T08:22:33.202Z,5.99
2019-02-18T08:23:33.118Z,6.08
2019-02-18T08:24:33.030Z,6.07
2019-02-18T08:25:32.948Z,6.07
2019-02-18T08:26:32.870Z,6.08
2019-02-18T08:27:32.786Z,6.07
2019-02-18T08:28:32.704Z,6.04
2019-02-18T08:29:32.622Z,5.97
2019-02-18T08:30:32.541Z,5.93
2019-02-18T08:31:32.457Z,5.97
2019-02-18T08:32:32.368Z,6.14
2019-02-18T08:33:32.292Z,6.17
2019-02-18T08:34:32.211Z,6.24
2019-02-18T08:35:32.127Z,6.32
2019-02-18T08:36:32.040Z,6.37
2019-02-18T08:37:31.966Z,6.47
2019-02-18T08:38:31.883Z,6.47
2019-02-18T08:39:31.802Z,6.55
2019-02-18T08:40:31.718Z,6.66
2019-02-18T08:41:31.640Z,6.45
2019-02-18T08:42:31.553Z,6.62
2019-02-18T08:43:31.473Z,6.69
2019-02-18T08:44:31.384Z,6.62
2019-02-18T08:45:31.322Z,6.75
2019-02-18T08:46:31.229Z,6.84
2019-02-18T08:47:31.147Z,6.98
2019-02-18T08:48:31.069Z,6.99
2019-02-18T08:49:30.985Z,7.20
2019-02-18T08:50:30.902Z,7.27
2019-02-18T08:51:30.824Z,7.35
2019-02-18T08:52:30.736Z,7.56
2019-02-18T08:53:30.661Z,7.57
2019-02-18T08:54:30.580Z,7.55
2019-02-18T08:55:30.496Z,7.78
2019-02-18T08:56:30.410Z,7.72
2019-02-18T08:57:30.330Z,7.83
2019-02-18T08:58:30.253Z,7.78
2019-02-18T08:59:30.173Z,7.79
2019-02-18T09:00:30.101Z,7.70
2019-02-18T09:01:30.013Z,7.83
2019-02-18T09:02:29.932Z,7.91
2019-02-18T09:03:29.850Z,7.94
2019-02-18T09:04:29.765Z,8.11
2019-02-18T09:05:29.688Z,8.21
2019-02-18T09:06:29.606Z,8.27
2019-02-18T09:07:29.529Z,8.48
2019-02-18T09:08:29.445Z,8.60
2019-02-18T09:09:29.365Z,8.68
2019-02-18T09:10:33.625Z,8.65
2019-02-18T09:11:29.207Z,8.70
2019-02-18T09:12:29.127Z,8.76
2019-02-18T09:13:29.044Z,8.90
2019-02-18T09:14:28.964Z,8.90
2019-02-18T09:15:28.885Z,9.05
2019-02-18T09:16:28.804Z,9.09
2019-02-18T09:17:28.730Z,9.10
2019-02-18T09:18:28.650Z,9.16
2019-02-18T09:19:28.564Z,9.22
2019-02-18T09:20:28.491Z,9.28
2019-02-18T09:21:28.409Z,9.31
2019-02-18T09:22:28.325Z,9.38
2019-02-18T09:23:28.243Z,9.50
2019-02-18T09:24:28.165Z,9.52
2019-02-18T09:25:28.089Z,9.58
2019-02-18T09:26:28.008Z,9.56
2019-02-18T09:27:27.926Z,9.64
2019-02-18T09:28:27.840Z,9.82
2019-02-18T09:29:27.765Z,9.78
2019-02-18T09:30:27.685Z,9.90
2019-02-18T09:31:27.607Z,9.82
2019-02-18T09:32:27.528Z,9.83
2019-02-18T09:33:27.451Z,9.80
2019-02-18T09:34:27.371Z,9.80
2019-02-18T09:35:27.294Z,9.79
2019-02-18T09:36:27.215Z,9.83
2019-02-18T09:37:27.132Z,9.82
2019-02-18T09:38:27.051Z,9.89
2019-02-18T09:39:31.079Z,10.00
2019-02-18T09:40:26.894Z,10.11
2019-02-18T09:41:26.818Z,10.18
2019-02-18T09:42:26.735Z,10.31
2019-02-18T09:43:26.659Z,10.51
2019-02-18T09:44:26.580Z,10.56
2019-02-18T09:45:26.498Z,10.62
2019-02-18T09:46:26.421Z,10.81
2019-02-18T09:47:26.343Z,10.93
2019-02-18T09:48:26.263Z,11.13
2019-02-18T09:49:26.187Z,11.17
2019-02-18T09:50:26.100Z,11.36
2019-02-18T09:51:26.025Z,11.47
2019-02-18T09:52:25.950Z,11.57
2019-02-18T09:53:25.874Z,11.68
2019-02-18T09:54:25.790Z,11.78
2019-02-18T09:55:25.712Z,11.81
2019-02-18T09:56:25.637Z,12.02
2019-02-18T09:57:25.563Z,12.06
2019-02-18T09:58:25.477Z,12.09
2019-02-18T09:59:25.403Z,12.15
2019-02-18T10:00:25.322Z,12.30
2019-02-18T10:01:25.243Z,12.36
2019-02-18T10:02:25.166Z,12.48
2019-02-18T10:03:31.718Z,12.66
2019-02-18T10:04:25.009Z,12.64
2019-02-18T10:05:24.932Z,12.61
2019-02-18T10:06:24.856Z,12.67
2019-02-18T10:07:24.774Z,12.78
2019-02-18T10:08:24.699Z,12.69
2019-02-18T10:09:24.615Z,12.71
2019-02-18T10:10:24.541Z,12.77
2019-02-18T10:11:24.463Z,12.85
2019-02-18T10:12:24.386Z,12.88
2019-02-18T10:13:24.312Z,12.86
2019-02-18T10:14:24.231Z,12.91
2019-02-18T10:15:24.156Z,12.85
2019-02-18T10:16:24.079Z,12.84
2019-02-18T10:17:23.997Z,12.91
2019-02-18T10:18:23.921Z,12.86
2019-02-18T10:19:23.840Z,12.96
2019-02-18T10:20:23.766Z,13.00
2019-02-18T10:21:23.690Z,12.91
2019-02-18T10:22:23.613Z,13.04
2019-02-18T10:23:23.535Z,13.00
2019-02-18T10:24:23.460Z,13.15
2019-02-18T10:25:23.393Z,13.11
2019-02-18T10:26:23.302Z,13.28
2019-02-18T10:27:23.223Z,13.32
2019-02-18T10:28:23.149Z,13.22
2019-02-18T10:29:23.079Z,13.27
2019-02-18T10:30:22.993Z,13.15
2019-02-18T10:31:22.914Z,13.22
2019-02-18T10:32:22.837Z,13.25
2019-02-18T10:33:22.763Z,13.27
2019-02-18T10:34:22.681Z,13.27
2019-02-18T10:35:22.609Z,13.36
2019-02-18T10:36:22.534Z,13.47
2019-02-18T10:37:22.456Z,13.65
2019-02-18T10:38:22.388Z,13.58
2019-02-18T10:39:22.300Z,13.68
2019-02-18T10:40:22.221Z,13.74
2019-02-18T10:41:22.144Z,13.80
2019-02-18T10:42:22.067Z,13.84
2019-02-18T10:43:31.848Z,13.98
2019-02-18T10:44:21.919Z,13.99
2019-02-18T10:45:21.840Z,13.99
2019-02-18T10:46:21.767Z,14.05
2019-02-18T10:47:21.686Z,14.14
2019-02-18T10:48:21.611Z,14.32
2019-02-18T10:49:22.832Z,14.39
2019-02-18T10:50:21.453Z,14.47
2019-02-18T10:51:21.383Z,14.38
2019-02-18T10:52:22.612Z,14.38
2019-02-18T10:53:21.229Z,14.42
2019-02-18T10:54:21.169Z,14.49
2019-02-18T10:55:21.076Z,14.47
2019-02-18T10:56:21.000Z,14.49
2019-02-18T10:57:20.924Z,14.54
2019-02-18T10:58:20.843Z,14.39
2019-02-18T10:59:20.766Z,14.47
2019-02-18T11:00:20.692Z,14.50
2019-02-18T11:01:20.621Z,14.44
2019-02-18T11:02:20.543Z,14.41
2019-02-18T11:03:20.467Z,14.56
2019-02-18T11:04:20.384Z,14.59
2019-02-18T11:05:20.314Z,14.65
2019-02-18T11:06:20.239Z,14.69
2019-02-18T11:07:20.164Z,14.85
2019-02-18T11:08:20.086Z,14.88
2019-02-18T11:09:20.022Z,14.68
2019-02-18T11:10:19.937Z,14.60
2019-02-18T11:11:19.859Z,14.50
2019-02-18T11:12:19.783Z,14.56
2019-02-18T11:13:19.708Z,14.41
2019-02-18T11:14:19.632Z,14.54
2019-02-18T11:15:19.556Z,14.61
2019-02-18T11:16:19.487Z,14.61
2019-02-18T11:17:19.402Z,14.69
2019-02-18T11:18:19.332Z,14.84
2019-02-18T11:19:19.254Z,14.83
2019-02-18T11:20:19.175Z,14.84
2019-02-18T11:21:19.107Z,14.85
2019-02-18T11:22:19.023Z,14.84
2019-02-18T11:23:18.951Z,14.90
2019-02-18T11:24:20.695Z,14.84
2019-02-18T11:25:18.800Z,14.90
2019-02-18T11:26:18.723Z,15.05
2019-02-18T11:27:18.653Z,15.12
2019-02-18T11:28:18.572Z,15.20
2019-02-18T11:29:18.496Z,15.24
2019-02-18T11:30:18.502Z,15.30
2019-02-18T11:31:18.350Z,15.31
2019-02-18T11:32:18.267Z,15.35
2019-02-18T11:33:18.206Z,15.48
2019-02-18T11:34:18.121Z,15.51
2019-02-18T11:35:18.049Z,15.52
2019-02-18T11:36:17.970Z,15.55
2019-02-18T11:37:17.899Z,15.63
2019-02-18T11:38:17.832Z,15.61
2019-02-18T11:39:17.761Z,15.63
2019-02-18T11:40:17.667Z,15.67
2019-02-18T11:41:26.815Z,15.64
2019-02-18T11:42:17.519Z,15.66
2019-02-18T11:43:17.443Z,15.73
2019-02-18T11:44:17.366Z,15.68
2019-02-18T11:45:17.296Z,15.73
2019-02-18T11:46:17.221Z,15.75
2019-02-18T11:47:17.146Z,15.82
2019-02-18T11:48:17.069Z,15.86
2019-02-18T11:49:16.989Z,15.88
2019-02-18T11:50:16.918Z,15.91
2019-02-18T11:51:16.844Z,15.97
2019-02-18T11:52:16.782Z,15.97
2019-02-18T11:53:16.696Z,15.91
2019-02-18T11:54:16.616Z,15.96
2019-02-18T11:55:16.549Z,16.03
2019-02-18T11:56:16.471Z,16.03
2019-02-18T11:57:16.391Z,16.00
2019-02-18T11:58:16.318Z,16.00
2019-02-18T11:59:24.019Z,16.15
2019-02-18T12:00:16.182Z,16.16
2019-02-18T12:01:16.093Z,16.18
2019-02-18T12:02:16.027Z,16.08
2019-02-18T12:03:15.943Z,16.10
2019-02-18T12:04:15.871Z,16.10
2019-02-18T12:05:15.796Z,16.15
2019-02-18T12:06:15.720Z,16.07
2019-02-18T12:07:15.646Z,16.08
2019-02-18T12:08:15.569Z,16.18
2019-02-18T12:09:17.766Z,16.18
2019-02-18T12:10:15.420Z,16.15
2019-02-18T12:11:15.348Z,16.18
2019-02-18T12:12:15.278Z,16.08
2019-02-18T12:13:15.203Z,16.04
2019-02-18T12:14:15.128Z,16.18
2019-02-18T12:15:15.067Z,16.23
2019-02-18T12:16:14.977Z,16.30
2019-02-18T12:17:20.633Z,16.40
2019-02-18T12:18:14.828Z,16.42
2019-02-18T12:19:14.751Z,16.53
2019-02-18T12:20:14.682Z,16.63
2019-02-18T12:21:14.604Z,16.62
2019-02-18T12:22:14.529Z,16.63
2019-02-18T12:23:14.453Z,16.62
2019-02-18T12:24:14.379Z,16.70
2019-02-18T12:25:14.306Z,16.71
2019-02-18T12:26:14.231Z,16.82
2019-02-18T12:27:14.162Z,16.82
2019-02-18T12:28:14.079Z,16.89
2019-02-18T12:29:14.013Z,16.85
2019-02-18T12:30:13.934Z,16.89
2019-02-18T12:31:13.860Z,16.85
2019-02-18T12:32:13.782Z,16.88
2019-02-18T12:33:14.536Z,16.84
2019-02-18T12:34:13.641Z,16.85
2019-02-18T12:35:13.564Z,16.84
2019-02-18T12:36:13.494Z,16.85
2019-02-18T12:37:13.415Z,16.78
2019-02-18T12:38:13.344Z,16.66
2019-02-18T12:39:13.272Z,16.77
2019-02-18T12:40:13.205Z,16.65
2019-02-18T12:41:13.120Z,16.47
2019-02-18T12:42:13.047Z,16.55
2019-02-18T12:43:12.975Z,16.41
2019-02-18T12:44:12.898Z,16.44
2019-02-18T12:45:12.830Z,16.57
2019-02-18T12:46:15.739Z,16.66
2019-02-18T12:47:12.693Z,16.57
2019-02-18T12:48:12.602Z,16.65
2019-02-18T12:49:12.528Z,16.75
2019-02-18T12:50:12.454Z,16.75
2019-02-18T12:51:12.387Z,16.81
2019-02-18T12:52:12.307Z,16.63
2019-02-18T12:53:12.232Z,16.73
2019-02-18T12:54:12.159Z,16.67
2019-02-18T12:55:12.122Z,16.71